Time;durP1;ratioP1;P1;durP2;ratioP2;P2;SDS_P1;SDS_P2;PMS_P1;PMS_P2;Temp;Humidity;BMP_temperature;BMP_pressure;BME280_temperature;BME280_humidity;BME280_pressure;Samples;Min_cycle;Max_cycle;Signal;HPM_P1;HPM_P2
2023/09/30 00:02:12;;;;;;;;;;;;;;;16.90;62.31;101501.66;6168598;23;7163;-76
2023/09/30 00:04:39;;;;;;;;;;;;;;;16.84;62.88;101502.31;6146237;23;6763;-74
2023/09/30 00:07:05;;;;;;;;;;;;;;;16.82;63.11;101497.91;6172047;23;6905;-74
2023/09/30 00:09:31;;;;;;;;;;;;;;;16.80;62.75;101484.88;6145839;23;7097;-75
2023/09/30 00:11:57;;;;;;;;;;;;;;;16.80;63.22;101479.72;6173135;23;7172;-73
2023/09/30 00:14:23;;;;;;;;;;;;;;;16.79;63.77;101478.81;6147109;23;6743;-74
2023/09/30 00:16:50;;;;;;;;;;;;;;;16.83;63.79;101471.19;6172334;23;7185;-74
2023/09/30 00:19:16;;;;;;;;;;;;;;;16.86;63.77;101485.16;6147778;23;6986;-74
2023/09/30 00:21:42;;;;;;;;;;;;;;;16.87;63.81;101481.72;6149665;23;6934;-74
2023/09/30 00:24:08;;;;;;;;;;;;;;;16.90;63.74;101481.84;6145462;23;6990;-74
2023/09/30 00:26:33;;;;;;;;;;;;;;;16.93;63.65;101494.03;6156612;23;6750;-76
2023/09/30 00:28:59;;;;;;;;;;;;;;;16.93;63.99;101496.63;6121428;23;6955;-77
2023/09/30 00:31:25;;;;;;;;;;;;;;;16.94;63.89;101493.22;6144776;23;6930;-77
2023/09/30 00:33:50;;;;;;;;;;;;;;;16.96;64.27;101496.72;6121102;23;6960;-77
2023/09/30 00:36:16;;;;;;;;;;;;;;;16.98;64.12;101500.25;6122867;23;6754;-76
2023/09/30 00:38:42;;;;;;;;;;;;;;;16.99;64.07;101502.03;6120744;23;6818;-77
2023/09/30 00:41:07;;;;;;;;;;;;;;;17.03;64.20;101508.25;6123709;23;6938;-77
2023/09/30 00:43:34;;;;;;;;;;;;;;;17.05;63.92;101511.78;6149063;23;7351;-76
2023/09/30 00:46:13;;;;;;;;;;;;;;;17.06;64.21;101505.78;6148298;23;6930;-76
2023/09/30 00:48:39;;;;;;;;;;;;;;;17.08;64.28;101498.97;6148141;23;6774;-77
2023/09/30 00:51:06;;;;;;;;;;;;;;;17.10;64.15;101493.84;6124116;23;7115;-77
2023/09/30 00:53:32;;;;;;;;;;;;;;;17.10;63.97;101501.63;6145269;23;6975;-76
2023/09/30 00:56:00;;;;;;;;;;;;;;;17.11;63.64;101505.97;6147592;23;6946;-77
2023/09/30 00:58:28;;;;;;;;;;;;;;;17.11;63.75;101498.19;6148255;23;7199;-77
2023/09/30 01:00:57;;;;;;;;;;;;;;;17.10;64.19;101499.91;6145099;23;6771;-77
2023/09/30 01:03:23;;;;;;;;;;;;;;;17.11;63.96;101496.47;6146476;23;6763;-77
2023/09/30 01:05:49;;;;;;;;;;;;;;;17.12;64.35;101497.38;6122810;23;6807;-77
2023/09/30 01:08:16;;;;;;;;;;;;;;;17.10;64.21;101511.97;6145789;23;7127;-76
2023/09/30 01:10:43;;;;;;;;;;;;;;;17.10;64.20;101504.22;6146755;23;6766;-76
2023/09/30 01:13:09;;;;;;;;;;;;;;;17.08;64.17;101502.41;6147194;23;6979;-77
2023/09/30 01:15:36;;;;;;;;;;;;;;;17.09;63.96;101503.31;6148248;23;7021;-76
2023/09/30 01:18:03;;;;;;;;;;;;;;;17.08;64.31;101512.78;6148377;23;6959;-77
2023/09/30 01:20:29;;;;;;;;;;;;;;;17.07;63.84;101511.00;6146687;23;6782;-77
2023/09/30 01:22:57;;;;;;;;;;;;;;;17.06;64.14;101509.25;6123074;23;6775;-77
2023/09/30 01:25:24;;;;;;;;;;;;;;;17.06;64.04;101517.00;6143112;23;6786;-77
2023/09/30 01:27:54;;;;;;;;;;;;;;;17.05;64.09;101512.66;6152989;23;6759;-73
2023/09/30 01:30:22;;;;;;;;;;;;;;;17.05;63.91;101510.06;6127083;23;7224;-72
2023/09/30 01:32:48;;;;;;;;;;;;;;;17.05;64.34;101501.44;6127868;23;7052;-72
2023/09/30 01:35:13;;;;;;;;;;;;;;;17.05;64.26;101497.13;6125955;23;7112;-73
2023/09/30 01:37:39;;;;;;;;;;;;;;;17.07;64.31;101512.72;6128152;23;6762;-73
2023/09/30 01:40:11;;;;;;;;;;;;;;;17.08;64.05;101517.09;6127957;23;6763;-73
2023/09/30 01:42:38;;;;;;;;;;;;;;;17.08;64.24;101517.09;6149186;23;7299;-72
2023/09/30 01:45:04;;;;;;;;;;;;;;;17.08;63.97;101517.94;6151363;23;7010;-72
2023/09/30 01:47:30;;;;;;;;;;;;;;;17.07;63.79;101521.38;6151341;23;7484;-73
2023/09/30 01:49:56;;;;;;;;;;;;;;;17.04;64.02;101516.09;6126909;23;6771;-73
2023/09/30 01:52:21;;;;;;;;;;;;;;;17.05;63.82;101520.44;6150628;23;6943;-74
2023/09/30 01:54:47;;;;;;;;;;;;;;;17.04;63.93;101510.91;6126481;23;6948;-72
2023/09/30 01:57:13;;;;;;;;;;;;;;;17.03;63.44;101508.25;6127621;23;7038;-73
2023/09/30 01:59:39;;;;;;;;;;;;;;;17.00;63.64;101515.88;6126103;23;6843;-74
2023/09/30 02:02:04;;;;;;;;;;;;;;;16.98;63.51;101526.16;6149050;23;6758;-74
2023/09/30 02:04:30;;;;;;;;;;;;;;;16.95;63.28;101515.69;6126415;23;6955;-73
2023/09/30 02:06:56;;;;;;;;;;;;;;;16.91;62.91;101514.66;6151345;23;6969;-72
2023/09/30 02:09:22;;;;;;;;;;;;;;;16.87;63.15;101506.72;6152415;23;6766;-74
2023/09/30 02:11:47;;;;;;;;;;;;;;;16.80;63.04;101511.69;6128282;23;8442;-73
2023/09/30 02:14:13;;;;;;;;;;;;;;;16.75;62.83;101512.28;6127654;23;8550;-74
2023/09/30 02:16:39;;;;;;;;;;;;;;;16.65;62.64;101509.31;6127115;23;7068;-73
2023/09/30 02:19:06;;;;;;;;;;;;;;;16.59;62.98;101510.78;6127638;23;6766;-72
2023/09/30 02:21:32;;;;;;;;;;;;;;;16.55;63.51;101514.09;6127673;23;8397;-72
2023/09/30 02:23:57;;;;;;;;;;;;;;;16.51;63.97;101513.97;6150099;23;6967;-73
2023/09/30 02:26:25;;;;;;;;;;;;;;;16.53;64.22;101526.94;6154578;23;6963;-73
2023/09/30 02:28:52;;;;;;;;;;;;;;;16.55;64.14;101522.72;6128294;23;6962;-72
2023/09/30 02:31:19;;;;;;;;;;;;;;;16.56;64.16;101516.72;6152040;23;7119;-73
2023/09/30 02:33:44;;;;;;;;;;;;;;;16.53;64.02;101511.41;6152022;23;6951;-74
2023/09/30 02:36:10;;;;;;;;;;;;;;;16.50;63.42;101514.75;6126290;23;7000;-74
2023/09/30 02:38:39;;;;;;;;;;;;;;;16.47;63.64;101521.53;6172776;23;6814;-75
2023/09/30 02:41:05;;;;;;;;;;;;;;;16.44;63.81;101526.56;6147491;23;7177;-74
2023/09/30 02:43:30;;;;;;;;;;;;;;;16.40;64.04;101528.13;6145888;23;6956;-74
2023/09/30 02:45:56;;;;;;;;;;;;;;;16.38;63.98;101528.09;6147313;23;7122;-74
2023/09/30 02:48:22;;;;;;;;;;;;;;;16.38;63.63;101534.94;6146019;23;6947;-74
2023/09/30 02:50:47;;;;;;;;;;;;;;;16.37;64.19;101536.66;6145394;23;6982;-74
2023/09/30 02:53:13;;;;;;;;;;;;;;;16.35;64.07;101529.66;6144796;23;6915;-74
2023/09/30 02:55:40;;;;;;;;;;;;;;;16.33;63.77;101524.41;6146188;23;6763;-74
2023/09/30 02:58:08;;;;;;;;;;;;;;;16.33;63.50;101531.31;6170390;23;6954;-74
2023/09/30 03:00:35;;;;;;;;;;;;;;;16.29;63.86;101531.97;6168275;23;7002;-74
2023/09/30 03:03:02;;;;;;;;;;;;;;;16.26;63.71;101542.19;6145400;23;7004;-74
2023/09/30 03:05:30;;;;;;;;;;;;;;;16.22;63.75;101534.31;6169169;23;6943;-74
2023/09/30 03:07:56;;;;;;;;;;;;;;;16.21;63.90;101540.28;6170487;23;6963;-74
2023/09/30 03:10:26;;;;;;;;;;;;;;;16.18;63.76;101542.75;6167673;23;6926;-74
2023/09/30 03:13:01;;;;;;;;;;;;;;;16.12;63.66;101542.47;6169231;23;6939;-74
2023/09/30 03:15:30;;;;;;;;;;;;;;;16.08;63.56;101541.47;6170414;23;6977;-74
2023/09/30 03:17:57;;;;;;;;;;;;;;;16.03;63.18;101542.06;6171668;23;6957;-74
2023/09/30 03:20:25;;;;;;;;;;;;;;;15.98;63.31;101535.81;6146070;23;6809;-74
2023/09/30 03:22:51;;;;;;;;;;;;;;;15.95;63.52;101532.28;6172584;23;6975;-74
2023/09/30 03:25:20;;;;;;;;;;;;;;;15.94;63.99;101527.94;6172747;23;7049;-74
2023/09/30 03:27:47;;;;;;;;;;;;;;;15.95;64.02;101534.88;6148701;23;7523;-74
2023/09/30 03:30:17;;;;;;;;;;;;;;;15.96;64.32;101531.47;6172749;23;6766;-74
2023/09/30 03:32:43;;;;;;;;;;;;;;;15.94;63.92;101519.28;6149415;23;7143;-74
2023/09/30 03:35:14;;;;;;;;;;;;;;;15.95;63.99;101526.22;6172703;23;7252;-74
2023/09/30 03:37:41;;;;;;;;;;;;;;;15.96;64.13;101526.31;6144810;23;7198;-76
2023/09/30 03:40:44;;;;;;;;;;;;;;;15.94;64.08;101520.19;6163694;23;6839;-74
2023/09/30 03:42:59;;;;;;;;;;;;;;;15.94;63.79;101527.94;6157597;23;6952;-75
2023/09/30 03:45:25;;;;;;;;;;;;;;;15.94;63.86;101529.63;6166325;23;7157;-73
2023/09/30 03:47:51;;;;;;;;;;;;;;;15.92;63.38;101534.72;6157991;23;6951;-74
2023/09/30 03:50:17;;;;;;;;;;;;;;;15.92;63.65;101536.44;6125930;23;6891;-73
2023/09/30 03:52:44;;;;;;;;;;;;;;;15.90;63.63;101526.03;6152229;23;7130;-72
2023/09/30 03:55:17;;;;;;;;;;;;;;;15.91;63.93;101509.69;6150875;23;7202;-73
2023/09/30 03:57:47;;;;;;;;;;;;;;;15.92;64.17;101500.25;6151944;23;6775;-72
2023/09/30 04:00:16;;;;;;;;;;;;;;;15.92;63.87;101490.78;6152513;23;6936;-73
2023/09/30 04:02:42;;;;;;;;;;;;;;;15.93;64.27;101489.09;6150792;23;11406;-74
2023/09/30 04:05:11;;;;;;;;;;;;;;;15.95;64.43;101508.13;6149417;23;7240;-73
2023/09/30 04:07:37;;;;;;;;;;;;;;;15.93;64.27;101487.41;6127509;23;6775;-74
2023/09/30 04:10:04;;;;;;;;;;;;;;;15.93;63.79;101492.56;6128256;23;6767;-73
2023/09/30 04:12:32;;;;;;;;;;;;;;;15.93;63.84;101491.66;6153285;23;6954;-73
2023/09/30 04:14:58;;;;;;;;;;;;;;;15.90;63.72;101492.41;6154789;23;6910;-72
2023/09/30 04:17:24;;;;;;;;;;;;;;;15.87;63.65;101491.34;6152775;23;7216;-73
2023/09/30 04:19:53;;;;;;;;;;;;;;;15.81;63.14;101492.88;6127932;23;6941;-73
2023/09/30 04:22:19;;;;;;;;;;;;;;;15.78;63.60;101507.38;6150872;23;6929;-74
2023/09/30 04:24:45;;;;;;;;;;;;;;;15.78;64.07;101522.88;6127157;23;6930;-72
2023/09/30 04:27:11;;;;;;;;;;;;;;;15.78;63.91;101531.50;6127471;23;7005;-74
2023/09/30 04:29:37;;;;;;;;;;;;;;;15.78;64.13;101528.91;6150616;23;6934;-73
2023/09/30 04:32:04;;;;;;;;;;;;;;;15.78;64.03;101538.38;6127211;23;6963;-73
2023/09/30 04:34:30;;;;;;;;;;;;;;;15.76;64.00;101535.72;6151251;23;6953;-73
2023/09/30 04:36:56;;;;;;;;;;;;;;;15.77;64.50;101537.47;6128125;23;7002;-73
2023/09/30 04:39:22;;;;;;;;;;;;;;;15.78;64.03;101531.50;6127581;23;7014;-73
2023/09/30 04:41:48;;;;;;;;;;;;;;;15.78;64.60;101530.63;6129238;23;7135;-74
2023/09/30 04:44:14;;;;;;;;;;;;;;;15.79;64.19;101532.38;6139962;23;6846;-74
2023/09/30 04:46:40;;;;;;;;;;;;;;;15.80;64.31;101534.16;6153462;23;7149;-77
2023/09/30 04:49:07;;;;;;;;;;;;;;;15.80;64.34;101539.31;6130522;23;6960;-73
2023/09/30 04:51:34;;;;;;;;;;;;;;;15.81;64.23;101535.91;6151891;23;7118;-74
2023/09/30 04:54:00;;;;;;;;;;;;;;;15.81;64.22;101549.75;6126024;23;7227;-73
2023/09/30 04:56:26;;;;;;;;;;;;;;;15.80;64.14;101537.63;6127086;23;6783;-73
2023/09/30 04:58:52;;;;;;;;;;;;;;;15.80;64.35;101531.56;6149448;23;7169;-72
2023/09/30 05:01:18;;;;;;;;;;;;;;;15.80;63.84;101526.41;6126977;23;6968;-74
2023/09/30 05:03:48;;;;;;;;;;;;;;;15.80;64.26;101516.06;6128253;23;6779;-74
2023/09/30 05:06:14;;;;;;;;;;;;;;;15.78;64.61;101513.41;6154272;23;7213;-73
2023/09/30 05:08:39;;;;;;;;;;;;;;;15.77;63.92;101526.28;6155734;23;7164;-74
2023/09/30 05:11:05;;;;;;;;;;;;;;;15.76;64.13;101529.69;6129303;23;6848;-73
2023/09/30 05:13:30;;;;;;;;;;;;;;;15.76;64.39;101529.69;6123696;23;6827;-72
2023/09/30 05:15:56;;;;;;;;;;;;;;;15.74;64.12;101539.03;6129263;23;6839;-73
2023/09/30 05:18:23;;;;;;;;;;;;;;;15.71;63.73;101536.31;6152861;23;6965;-74
2023/09/30 05:20:49;;;;;;;;;;;;;;;15.68;63.62;101537.06;6127990;23;7243;-73
2023/09/30 05:23:15;;;;;;;;;;;;;;;15.64;63.83;101541.19;6130842;23;6949;-72
2023/09/30 05:25:42;;;;;;;;;;;;;;;15.61;63.86;101546.25;6128102;23;6763;-73
2023/09/30 05:28:09;;;;;;;;;;;;;;;15.61;63.67;101550.53;6153549;23;6965;-74
2023/09/30 05:30:35;;;;;;;;;;;;;;;15.60;64.11;101561.69;6153058;23;7275;-73
2023/09/30 05:33:01;;;;;;;;;;;;;;;15.59;64.63;101547.88;6149786;23;7150;-73
2023/09/30 05:35:28;;;;;;;;;;;;;;;15.62;64.60;101532.50;6130478;23;6775;-72
2023/09/30 05:37:54;;;;;;;;;;;;;;;15.62;64.66;101527.34;6128837;23;6972;-73
2023/09/30 05:40:25;;;;;;;;;;;;;;;15.62;64.20;101531.63;6127327;23;6962;-73
2023/09/30 05:42:57;;;;;;;;;;;;;;;15.61;63.88;101537.63;6154529;23;6989;-72
2023/09/30 05:45:24;;;;;;;;;;;;;;;15.58;64.08;101540.94;6130511;23;6774;-72
2023/09/30 05:47:52;;;;;;;;;;;;;;;15.57;64.31;101552.09;6154907;23;6783;-71
2023/09/30 05:50:23;;;;;;;;;;;;;;;15.56;64.14;101568.41;6152163;23;6946;-74
2023/09/30 05:52:50;;;;;;;;;;;;;;;15.53;64.21;101571.75;6130860;23;6958;-71
2023/09/30 05:55:20;;;;;;;;;;;;;;;15.53;63.87;101558.81;6154789;23;6770;-72
2023/09/30 05:57:49;;;;;;;;;;;;;;;15.53;64.27;101557.91;6154187;23;6966;-73
2023/09/30 06:00:50;;;;;;;;;;;;;;;15.54;64.36;101564.84;6152461;23;6938;-73
2023/09/30 06:03:08;;;;;;;;;;;;;;;15.54;64.12;101580.34;6123243;23;6803;-72
2023/09/30 06:05:40;;;;;;;;;;;;;;;15.53;64.01;101579.50;6098182;23;7082;-74
2023/09/30 06:08:08;;;;;;;;;;;;;;;15.53;63.91;101569.16;6119629;23;6770;-75
2023/09/30 06:10:35;;;;;;;;;;;;;;;15.53;63.58;101564.00;6117567;23;7001;-75
2023/09/30 06:13:02;;;;;;;;;;;;;;;15.53;63.84;101561.41;6115817;23;7189;-74
2023/09/30 06:15:28;;;;;;;;;;;;;;;15.54;64.16;101562.28;6115910;23;6849;-76
2023/09/30 06:17:56;;;;;;;;;;;;;;;15.53;64.44;101558.81;6118457;23;6850;-74
2023/09/30 06:20:22;;;;;;;;;;;;;;;15.54;63.92;101559.69;6069436;23;7091;-73
2023/09/30 06:22:49;;;;;;;;;;;;;;;15.55;64.07;101561.50;6115906;23;6778;-74
2023/09/30 06:25:16;;;;;;;;;;;;;;;15.54;63.76;101565.75;6118926;23;6779;-74
2023/09/30 06:27:46;;;;;;;;;;;;;;;15.55;64.49;101587.31;6118307;23;6913;-74
2023/09/30 06:30:13;;;;;;;;;;;;;;;15.55;64.32;101588.19;6114395;23;6965;-73
2023/09/30 06:32:40;;;;;;;;;;;;;;;15.58;64.03;101587.47;6086908;23;6953;-74
2023/09/30 06:35:10;;;;;;;;;;;;;;;15.61;64.46;101577.25;6087458;23;6830;-73
2023/09/30 06:37:39;;;;;;;;;;;;;;;15.65;64.64;101573.13;6063306;23;6976;-74
2023/09/30 06:40:08;;;;;;;;;;;;;;;15.69;64.66;101578.50;6086769;23;6885;-74
2023/09/30 06:42:35;;;;;;;;;;;;;;;15.73;64.94;101579.53;6088597;23;6778;-74
2023/09/30 06:45:05;;;;;;;;;;;;;;;15.78;65.01;101582.31;6065836;23;7435;-74
2023/09/30 06:47:36;;;;;;;;;;;;;;;15.84;65.20;101587.78;6089540;23;8103;-74
2023/09/30 06:50:16;;;;;;;;;;;;;;;15.91;65.26;101584.66;6088427;23;6914;-74
2023/09/30 06:52:45;;;;;;;;;;;;;;;15.99;65.51;101574.69;6090559;23;7233;-74
2023/09/30 06:55:13;;;;;;;;;;;;;;;16.08;65.78;101574.19;6087218;23;6775;-74
2023/09/30 06:57:40;;;;;;;;;;;;;;;16.15;65.72;101584.00;6089837;23;6774;-74
2023/09/30 07:00:14;;;;;;;;;;;;;;;16.24;65.43;101581.81;6088403;23;7667;-74
2023/09/30 07:02:40;;;;;;;;;;;;;;;16.32;65.75;101583.81;6110751;23;12490;-74
2023/09/30 07:05:12;;;;;;;;;;;;;;;16.40;65.77;101582.47;6088664;23;6778;-74
2023/09/30 07:07:39;;;;;;;;;;;;;;;16.49;65.73;101593.22;6088196;23;7264;-74
2023/09/30 07:10:08;;;;;;;;;;;;;;;16.58;66.17;101597.91;6089447;23;6956;-73
2023/09/30 07:12:35;;;;;;;;;;;;;;;16.66;65.49;101593.03;6088478;23;6771;-74
2023/09/30 07:15:05;;;;;;;;;;;;;;;16.73;65.71;101595.09;6088868;23;7246;-74
2023/09/30 07:17:31;;;;;;;;;;;;;;;16.82;65.87;101604.06;6073113;23;7188;-73
2023/09/30 07:19:57;;;;;;;;;;;;;;;16.89;66.12;101606.94;6116912;23;6763;-73
2023/09/30 07:22:22;;;;;;;;;;;;;;;17.00;65.93;101609.09;6117256;23;6755;-73
2023/09/30 07:24:48;;;;;;;;;;;;;;;17.07;65.95;101613.75;6116080;23;6743;-72
2023/09/30 07:27:14;;;;;;;;;;;;;;;17.14;65.63;101620.03;6117913;23;6770;-73
2023/09/30 07:29:39;;;;;;;;;;;;;;;17.21;65.97;101624.66;6117712;23;6811;-73
2023/09/30 07:32:07;;;;;;;;;;;;;;;17.28;65.53;101626.66;6118122;23;6771;-73
2023/09/30 07:34:33;;;;;;;;;;;;;;;17.39;65.62;101623.63;6117296;23;7111;-73
2023/09/30 07:36:58;;;;;;;;;;;;;;;17.46;65.62;101634.28;6117261;23;6759;-73
2023/09/30 07:39:24;;;;;;;;;;;;;;;17.55;65.56;101640.66;6116982;23;6902;-73
2023/09/30 07:41:50;;;;;;;;;;;;;;;17.61;66.01;101627.91;6090355;23;6935;-73
2023/09/30 07:44:15;;;;;;;;;;;;;;;17.67;65.38;101625.56;6140729;23;6763;-73
2023/09/30 07:46:41;;;;;;;;;;;;;;;17.72;65.81;101631.84;6117139;23;6934;-72
2023/09/30 07:49:10;;;;;;;;;;;;;;;17.80;65.24;101644.19;6118247;23;6754;-72
2023/09/30 07:51:35;;;;;;;;;;;;;;;17.84;65.08;101646.94;6117688;23;6962;-73
2023/09/30 07:54:01;;;;;;;;;;;;;;;17.91;65.23;101645.47;6141375;23;6815;-73
2023/09/30 07:56:27;;;;;;;;;;;;;;;17.96;65.21;101656.91;6116094;23;6747;-72
2023/09/30 07:58:53;;;;;;;;;;;;;;;18.03;65.49;101668.41;6092025;23;6925;-73
2023/09/30 08:01:19;;;;;;;;;;;;;;;18.07;64.80;101662.53;6117725;23;6931;-73
2023/09/30 08:03:45;;;;;;;;;;;;;;;18.15;65.53;101663.69;6139654;23;7024;-73
2023/09/30 08:06:12;;;;;;;;;;;;;;;18.25;65.10;101664.03;6115709;23;7027;-72
2023/09/30 08:08:37;;;;;;;;;;;;;;;18.34;65.14;101664.38;6115833;23;6771;-73
2023/09/30 08:11:04;;;;;;;;;;;;;;;18.42;65.02;101660.34;6116485;23;6862;-73
2023/09/30 08:13:32;;;;;;;;;;;;;;;18.51;64.74;101657.19;6114058;23;6771;-73
2023/09/30 08:15:58;;;;;;;;;;;;;;;18.57;64.93;101659.13;6116571;23;6949;-72
2023/09/30 08:18:24;;;;;;;;;;;;;;;18.64;64.92;101655.03;6140760;23;6767;-73
2023/09/30 08:20:49;;;;;;;;;;;;;;;18.70;64.62;101658.72;6115977;23;6985;-74
2023/09/30 08:23:15;;;;;;;;;;;;;;;18.78;64.38;101660.69;6112459;23;6758;-73
2023/09/30 08:25:41;;;;;;;;;;;;;;;18.85;64.68;101649.69;6111459;23;6930;-73
2023/09/30 08:28:09;;;;;;;;;;;;;;;18.91;63.96;101652.47;6104438;23;6771;-73
2023/09/30 08:30:38;;;;;;;;;;;;;;;18.97;64.25;101646.59;6114155;23;7236;-71
2023/09/30 08:33:05;;;;;;;;;;;;;;;19.03;64.53;101644.25;6091053;23;6967;-72
2023/09/30 08:35:37;;;;;;;;;;;;;;;19.09;63.71;101644.47;6092154;23;6843;-73
2023/09/30 08:38:03;;;;;;;;;;;;;;;19.18;63.75;101645.59;6092331;23;7028;-72
2023/09/30 08:40:29;;;;;;;;;;;;;;;19.25;63.78;101648.44;6093229;23;6970;-73
2023/09/30 08:42:55;;;;;;;;;;;;;;;19.32;63.51;101643.44;6094177;23;6863;-72
2023/09/30 08:45:21;;;;;;;;;;;;;;;19.38;63.97;101648.81;6089797;23;6948;-72
2023/09/30 08:47:47;;;;;;;;;;;;;;;19.44;63.35;101641.22;6093065;23;6950;-71
2023/09/30 08:50:13;;;;;;;;;;;;;;;19.51;63.33;101643.19;6091851;23;7067;-72
2023/09/30 08:52:45;;;;;;;;;;;;;;;19.59;63.33;101646.00;6091640;23;7295;-74
2023/09/30 08:55:12;;;;;;;;;;;;;;;19.65;63.00;101641.00;6087697;23;6775;-73
2023/09/30 08:57:40;;;;;;;;;;;;;;;19.73;63.53;101640.34;6092768;23;6958;-74
2023/09/30 09:00:12;;;;;;;;;;;;;;;19.81;63.04;101644.03;6092797;23;7081;-73
2023/09/30 09:02:42;;;;;;;;;;;;;;;19.90;62.84;101640.84;6091629;23;6775;-73
2023/09/30 09:05:09;;;;;;;;;;;;;;;19.97;63.16;101640.19;6093539;23;6775;-73
2023/09/30 09:07:35;;;;;;;;;;;;;;;20.05;62.54;101643.91;6087393;23;6837;-74
2023/09/30 09:10:13;;;;;;;;;;;;;;;20.12;62.03;101640.66;6090618;23;6945;-74
2023/09/30 09:12:40;;;;;;;;;;;;;;;20.19;62.26;101639.09;6093867;23;7114;-73
2023/09/30 09:15:19;;;;;;;;;;;;;;;20.26;61.73;101643.66;6091023;23;6843;-74
2023/09/30 09:17:45;;;;;;;;;;;;;;;20.33;61.50;101631.66;6114671;23;7122;-73
2023/09/30 09:20:25;;;;;;;;;;;;;;;20.42;61.95;101619.75;6117682;23;6881;-73
2023/09/30 09:22:58;;;;;;;;;;;;;;;20.51;61.40;101626.06;6090568;23;7442;-73
2023/09/30 09:25:24;;;;;;;;;;;;;;;20.61;61.38;101629.81;6114323;23;7029;-72
2023/09/30 09:27:51;;;;;;;;;;;;;;;20.69;61.14;101632.59;6114524;23;6975;-72
2023/09/30 09:30:26;;;;;;;;;;;;;;;20.74;61.04;101631.00;6114789;23;6779;-73
2023/09/30 09:33:04;;;;;;;;;;;;;;;20.81;60.93;101632.03;6091580;23;6851;-75
2023/09/30 09:35:33;;;;;;;;;;;;;;;20.87;60.78;101640.06;6094370;23;6779;-73
2023/09/30 09:38:06;;;;;;;;;;;;;;;20.93;60.77;101632.38;6110424;23;7228;-75
2023/09/30 09:40:34;;;;;;;;;;;;;;;21.01;60.60;101634.28;6087581;23;7173;-76
2023/09/30 09:43:04;;;;;;;;;;;;;;;21.08;60.40;101644.03;6085609;23;6954;-75
2023/09/30 09:45:32;;;;;;;;;;;;;;;21.17;60.32;101649.47;6111184;23;6779;-76
2023/09/30 09:47:59;;;;;;;;;;;;;;;21.22;59.83;101650.44;6145983;23;6775;-77
2023/09/30 09:50:25;;;;;;;;;;;;;;;21.27;59.72;101641.88;6120951;23;6771;-77
2023/09/30 09:52:59;;;;;;;;;;;;;;;21.34;59.41;101646.34;6120002;23;6930;-77
2023/09/30 09:55:27;;;;;;;;;;;;;;;21.40;59.10;101643.91;6125046;23;6783;-76
2023/09/30 09:57:54;;;;;;;;;;;;;;;21.49;59.21;101657.16;6122176;23;6787;-77
2023/09/30 10:00:26;;;;;;;;;;;;;;;21.60;58.80;101657.41;6119595;23;6783;-76
2023/09/30 10:02:52;;;;;;;;;;;;;;;21.71;58.94;101656.78;6095127;23;6980;-76
2023/09/30 10:05:20;;;;;;;;;;;;;;;21.88;59.04;101662.34;6140331;23;6777;-76
2023/09/30 10:08:00;;;;;;;;;;;;;;;22.05;59.14;101661.00;6137532;23;6975;-77
2023/09/30 10:10:28;;;;;;;;;;;;;;;22.69;59.67;101663.94;6115498;23;6767;-76
2023/09/30 10:12:53;;;;;;;;;;;;;;;23.48;58.07;101653.91;6116486;23;6968;-75
2023/09/30 10:15:25;;;;;;;;;;;;;;;24.19;56.47;101659.19;6114210;23;6982;-77
2023/09/30 10:18:09;;;;;;;;;;;;;;;24.91;55.34;101659.06;6118197;23;7926;-76
2023/09/30 10:20:41;;;;;;;;;;;;;;;25.88;53.73;101657.94;6116484;23;6787;-76
2023/09/30 10:23:24;;;;;;;;;;;;;;;26.99;51.74;101655.53;6140523;23;6957;-77
2023/09/30 10:25:57;;;;;;;;;;;;;;;27.90;49.41;101645.66;6116090;23;6990;-76
2023/09/30 10:28:49;;;;;;;;;;;;;;;28.71;47.90;101646.06;6118248;23;6978;-77
2023/09/30 10:31:21;;;;;;;;;;;;;;;28.77;45.55;101647.78;6113878;23;7141;-77
2023/09/30 10:34:02;;;;;;;;;;;;;;;29.09;45.42;101644.00;6138784;23;6783;-78
2023/09/30 10:36:35;;;;;;;;;;;;;;;29.06;43.61;101637.00;6140674;23;6949;-77
2023/09/30 10:39:03;;;;;;;;;;;;;;;28.72;44.08;101639.91;6118535;23;6787;-77
2023/09/30 10:41:41;;;;;;;;;;;;;;;28.56;44.10;101649.69;6140634;23;6771;-78
2023/09/30 10:44:25;;;;;;;;;;;;;;;28.22;43.41;101647.31;6117734;23;6819;-78
2023/09/30 10:46:55;;;;;;;;;;;;;;;28.15;43.67;101649.06;6116753;23;6767;-77
2023/09/30 10:49:23;;;;;;;;;;;;;;;27.93;43.76;101658.84;6139684;23;6857;-76
2023/09/30 10:51:55;;;;;;;;;;;;;;;27.56;43.61;101659.84;6141251;23;7030;-77
2023/09/30 10:54:29;;;;;;;;;;;;;;;27.24;43.43;101650.25;6117296;23;6837;-77
2023/09/30 10:56:58;;;;;;;;;;;;;;;27.15;43.84;101648.53;6116089;23;6859;-77
2023/09/30 10:59:31;;;;;;;;;;;;;;;27.83;43.91;101647.47;6117920;23;7222;-77
2023/09/30 11:01:58;;;;;;;;;;;;;;;28.86;42.92;101631.91;6114155;23;6779;-78
2023/09/30 11:04:26;;;;;;;;;;;;;;;29.61;41.02;101623.22;6116102;23;6933;-77
2023/09/30 11:06:51;;;;;;;;;;;;;;;29.59;39.74;101627.66;6114499;23;6922;-77
2023/09/30 11:09:19;;;;;;;;;;;;;;;29.07;39.73;101628.19;6117372;23;7117;-77
2023/09/30 11:11:54;;;;;;;;;;;;;;;28.40;40.38;101627.84;6140898;23;7296;-77
2023/09/30 11:14:32;;;;;;;;;;;;;;;27.81;40.24;101618.50;6140757;23;7323;-77
2023/09/30 11:17:01;;;;;;;;;;;;;;;27.21;40.79;101624.81;6115409;23;6951;-77
2023/09/30 11:19:37;;;;;;;;;;;;;;;26.85;41.37;101621.34;6109402;23;7004;-77
2023/09/30 11:22:03;;;;;;;;;;;;;;;27.25;41.88;101617.78;6111628;23;7008;-77
2023/09/30 11:24:29;;;;;;;;;;;;;;;28.21;40.73;101627.97;6087951;23;6988;-77
2023/09/30 11:26:55;;;;;;;;;;;;;;;28.80;38.73;101618.75;6117464;23;7261;-77
2023/09/30 11:29:21;;;;;;;;;;;;;;;29.33;38.09;101623.50;6142637;23;6839;-77
2023/09/30 11:31:50;;;;;;;;;;;;;;;30.25;37.31;101625.03;6139933;23;6782;-77
2023/09/30 11:34:17;;;;;;;;;;;;;;;31.19;35.12;101611.97;6093478;23;6842;-76
2023/09/30 11:36:52;;;;;;;;;;;;;;;31.38;33.82;101609.00;6141945;23;6894;-76
2023/09/30 11:39:27;;;;;;;;;;;;;;;31.45;33.12;101610.63;6141362;23;6775;-77
2023/09/30 11:41:55;;;;;;;;;;;;;;;31.22;33.89;101603.97;6118708;23;6846;-76
2023/09/30 11:44:22;;;;;;;;;;;;;;;31.54;34.19;101596.31;6141783;23;6779;-76
2023/09/30 11:46:53;;;;;;;;;;;;;;;32.01;33.22;101596.16;6140855;23;6866;-77
2023/09/30 11:49:40;;;;;;;;;;;;;;;31.70;33.41;101597.72;6118954;23;6944;-77
2023/09/30 11:52:11;;;;;;;;;;;;;;;30.98;33.73;101585.03;6093574;23;6774;-76
2023/09/30 11:54:41;;;;;;;;;;;;;;;30.89;34.15;101585.19;6092860;23;6775;-77
2023/09/30 11:57:11;;;;;;;;;;;;;;;30.96;33.71;101585.94;6092899;23;6779;-77
2023/09/30 11:59:39;;;;;;;;;;;;;;;31.09;34.09;101563.63;6122028;23;6969;-75
2023/09/30 12:02:08;;;;;;;;;;;;;;;31.10;33.83;101565.41;6119339;23;6924;-75
2023/09/30 12:04:35;;;;;;;;;;;;;;;30.92;33.27;101561.31;6121067;23;6978;-76
2023/09/30 12:07:01;;;;;;;;;;;;;;;30.53;33.92;101556.72;6121507;23;7171;-76
2023/09/30 12:09:28;;;;;;;;;;;;;;;29.99;33.79;101557.56;6118202;23;6952;-76
2023/09/30 12:11:54;;;;;;;;;;;;;;;29.50;34.34;101563.50;6120309;23;6948;-76
2023/09/30 12:14:24;;;;;;;;;;;;;;;29.25;34.83;101570.81;6119617;23;6875;-76
2023/09/30 12:16:50;;;;;;;;;;;;;;;29.11;35.28;101563.06;6121211;23;6763;-76
2023/09/30 12:19:17;;;;;;;;;;;;;;;28.88;35.38;101560.66;6119430;23;6967;-75
2023/09/30 12:21:48;;;;;;;;;;;;;;;28.54;35.42;101564.47;6122052;23;6945;-75
2023/09/30 12:24:16;;;;;;;;;;;;;;;28.13;35.50;101563.88;6122265;23;6775;-76
2023/09/30 12:26:49;;;;;;;;;;;;;;;27.81;35.80;101571.09;6122059;23;6932;-75
2023/09/30 12:29:17;;;;;;;;;;;;;;;27.52;36.29;101565.94;6098341;23;7004;-75
2023/09/30 12:31:48;;;;;;;;;;;;;;;27.33;36.09;101567.75;6122778;23;6976;-76
2023/09/30 12:34:15;;;;;;;;;;;;;;;27.20;36.67;101573.06;6099002;23;6763;-75
2023/09/30 12:36:42;;;;;;;;;;;;;;;27.11;36.83;101562.56;6089258;23;6958;-75
2023/09/30 12:39:11;;;;;;;;;;;;;;;27.10;37.03;101564.34;6087209;23;6751;-75
2023/09/30 12:41:42;;;;;;;;;;;;;;;27.10;37.52;101555.56;6050431;23;6798;-77
2023/09/30 12:44:09;;;;;;;;;;;;;;;27.14;37.36;101562.59;6142108;23;6831;-76
2023/09/30 12:49:04;;;;;;;;;;;;;;;27.08;37.64;101562.59;6117187;23;6987;-75
2023/09/30 12:51:30;;;;;;;;;;;;;;;27.04;37.32;101556.47;6117760;23;6758;-76
2023/09/30 12:53:57;;;;;;;;;;;;;;;26.97;37.13;101550.34;6142471;23;6945;-76
2023/09/30 12:56:23;;;;;;;;;;;;;;;26.87;37.26;101556.47;6117183;23;6938;-76